Time;durP1;ratioP1;P1;durP2;ratioP2;P2;SDS_P1;SDS_P2;PMS_P1;PMS_P2;Temp;Humidity;BMP_temperature;BMP_pressure;BME280_temperature;BME280_humidity;BME280_pressure;Samples;Min_cycle;Max_cycle;Signal;HPM_P1;HPM_P2
2022/04/20 00:00:58;;;;;;;;;;;;;;;4.43;100.00;101547.06;4991441;28;19909;-85
2022/04/20 00:03:23;;;;;;;;;;;;;;;4.40;100.00;101540.19;5013737;28;19917;-85
2022/04/20 00:05:48;;;;;;;;;;;;;;;4.36;100.00;101535.22;4982276;28;19959;-85
2022/04/20 00:08:13;;;;;;;;;;;;;;;4.32;100.00;101528.44;4993167;28;19938;-85
2022/04/20 00:10:39;;;;;;;;;;;;;;;4.25;100.00;101530.63;5001372;28;19912;-86
2022/04/20 00:13:04;;;;;;;;;;;;;;;4.17;100.00;101520.59;4997881;28;19932;-85
2022/04/20 00:15:29;;;;;;;;;;;;;;;4.14;100.00;101530.50;5007081;28;19913;-85
2022/04/20 00:17:55;;;;;;;;;;;;;;;4.15;100.00;101537.50;5014096;28;19980;-86
2022/04/20 00:20:20;;;;;;;;;;;;;;;4.12;100.00;101535.03;4999145;28;19909;-85
2022/04/20 00:22:45;;;;;;;;;;;;;;;4.06;100.00;101538.94;5001358;28;20727;-86
2022/04/20 00:25:10;;;;;;;;;;;;;;;4.03;100.00;101544.44;4998575;28;19968;-85
2022/04/20 00:27:36;;;;;;;;;;;;;;;3.94;100.00;101540.59;4990195;28;19956;-85
2022/04/20 00:30:03;;;;;;;;;;;;;;;3.89;100.00;101542.69;5007711;28;19917;-85
2022/04/20 00:32:29;;;;;;;;;;;;;;;3.87;100.00;101546.38;5013412;28;19913;-85
2022/04/20 00:34:55;;;;;;;;;;;;;;;3.81;100.00;101540.53;4997525;28;19991;-86
2022/04/20 00:37:20;;;;;;;;;;;;;;;3.78;100.00;101546.00;5005283;28;19955;-86
2022/04/20 00:39:45;;;;;;;;;;;;;;;3.72;100.00;101543.78;5012372;28;19963;-84
2022/04/20 00:42:11;;;;;;;;;;;;;;;3.71;100.00;101547.34;5014084;28;19920;-85
2022/04/20 00:44:37;;;;;;;;;;;;;;;3.71;100.00;101550.00;5025867;28;19917;-86
2022/04/20 00:47:03;;;;;;;;;;;;;;;3.62;100.00;101550.59;4992331;28;19936;-87
2022/04/20 00:49:29;;;;;;;;;;;;;;;3.65;100.00;101557.47;4999904;28;19915;-86
2022/04/20 00:51:57;;;;;;;;;;;;;;;3.65;100.00;101560.94;5015131;28;20031;-85
2022/04/20 00:54:23;;;;;;;;;;;;;;;3.72;100.00;101566.69;4993763;28;19913;-85
2022/04/20 00:56:49;;;;;;;;;;;;;;;3.71;100.00;101565.00;5000127;28;19967;-86
2022/04/20 00:59:18;;;;;;;;;;;;;;;3.62;100.00;101555.03;4999132;28;20397;-87
2022/04/20 01:01:44;;;;;;;;;;;;;;;3.58;100.00;101555.22;4997611;28;20304;-86
2022/04/20 01:04:09;;;;;;;;;;;;;;;3.59;100.00;101567.47;5017002;28;19917;-85
2022/04/20 01:07:08;;;;;;;;;;;;;;;3.66;100.00;101560.00;5008125;28;20340;-87
2022/04/20 01:09:48;;;;;;;;;;;;;;;3.70;100.00;101569.44;5007702;28;19920;-86
2022/04/20 01:12:46;;;;;;;;;;;;;;;3.84;100.00;101599.38;5000194;28;19923;-87
2022/04/20 01:15:31;;;;;;;;;;;;;;;3.91;100.00;101603.34;5017733;28;20043;-85
2022/04/20 01:18:17;;;;;;;;;;;;;;;3.89;100.00;101599.97;5018194;28;20015;-88
2022/04/20 01:20:48;;;;;;;;;;;;;;;3.97;100.00;101597.66;5031614;28;19981;-85
2022/04/20 01:23:31;;;;;;;;;;;;;;;4.00;100.00;101605.38;5018641;28;19923;-87
2022/04/20 01:26:29;;;;;;;;;;;;;;;3.97;100.00;101602.94;5000190;28;19919;-87
2022/04/20 01:28:55;;;;;;;;;;;;;;;4.00;100.00;101613.31;5038485;28;19917;-86
2022/04/20 01:31:38;;;;;;;;;;;;;;;4.07;100.00;101608.47;5003043;28;19913;-87
2022/04/20 01:34:13;;;;;;;;;;;;;;;4.04;100.00;101614.81;5014875;28;20020;-87
2022/04/20 01:36:39;;;;;;;;;;;;;;;4.01;100.00;101612.38;5025419;28;19960;-87
2022/04/20 01:39:04;;;;;;;;;;;;;;;3.99;100.00;101612.47;5018012;28;19980;-87
2022/04/20 01:41:29;;;;;;;;;;;;;;;3.94;100.00;101606.66;4999003;28;19913;-87
2022/04/20 01:43:55;;;;;;;;;;;;;;;3.89;100.00;101605.25;5023239;28;20514;-87
2022/04/20 01:46:28;;;;;;;;;;;;;;;3.89;100.00;101605.25;5005496;28;19917;-87
2022/04/20 01:49:12;;;;;;;;;;;;;;;3.78;100.00;101601.47;5019831;28;19927;-88
2022/04/20 01:51:46;;;;;;;;;;;;;;;3.75;100.00;101604.31;5015543;28;19952;-86
2022/04/20 01:54:24;;;;;;;;;;;;;;;3.71;100.00;101596.69;5002465;28;19972;-85
2022/04/20 01:56:58;;;;;;;;;;;;;;;3.68;100.00;101600.38;5009541;28;20391;-85
2022/04/20 01:59:36;;;;;;;;;;;;;;;3.66;100.00;101604.91;5007704;28;19913;-85
2022/04/20 02:05:04;;;;;;;;;;;;;;;3.72;100.00;101609.81;5011930;28;19960;-85
2022/04/20 02:07:30;;;;;;;;;;;;;;;3.67;100.00;101596.03;4995443;28;19956;-85
2022/04/20 02:09:55;;;;;;;;;;;;;;;3.69;100.00;101590.66;5010890;28;20147;-86
2022/04/20 02:12:20;;;;;;;;;;;;;;;3.67;100.00;101588.09;4989046;28;20745;-85
2022/04/20 02:15:06;;;;;;;;;;;;;;;3.63;100.00;101594.56;5009223;28;20348;-85
2022/04/20 02:18:06;;;;;;;;;;;;;;;3.57;100.00;101589.66;4976184;28;19924;-88
2022/04/20 02:20:46;;;;;;;;;;;;;;;3.56;100.00;101587.97;5008638;28;20004;-86
2022/04/20 02:23:11;;;;;;;;;;;;;;;3.61;100.00;101591.16;5011226;28;19917;-86
2022/04/20 02:25:37;;;;;;;;;;;;;;;3.54;100.00;101584.56;4995696;28;19967;-87
2022/04/20 02:28:02;;;;;;;;;;;;;;;3.53;100.00;101588.97;4995893;28;19913;-85
2022/04/20 02:30:27;;;;;;;;;;;;;;;3.48;100.00;101585.78;5006131;28;20328;-86
2022/04/20 02:32:54;;;;;;;;;;;;;;;3.54;100.00;101579.28;5010026;28;19917;-86
2022/04/20 02:35:20;;;;;;;;;;;;;;;3.56;100.00;101587.97;4993368;28;19910;-85
2022/04/20 02:37:46;;;;;;;;;;;;;;;3.53;100.00;101574.94;5020579;28;19948;-85
2022/04/20 02:40:11;;;;;;;;;;;;;;;3.47;100.00;101576.19;5024936;28;19967;-85
2022/04/20 02:42:37;;;;;;;;;;;;;;;3.44;100.00;101581.66;4988081;28;19922;-86
2022/04/20 02:45:02;;;;;;;;;;;;;;;3.39;100.00;101573.16;4986415;28;19909;-85
2022/04/20 02:47:28;;;;;;;;;;;;;;;3.39;100.00;101575.78;5002540;28;19913;-86
2022/04/20 02:49:53;;;;;;;;;;;;;;;3.48;100.00;101574.38;4994829;28;20285;-87
2022/04/20 02:52:19;;;;;;;;;;;;;;;3.46;100.00;101578.91;4993114;28;19924;-85
2022/04/20 02:54:44;;;;;;;;;;;;;;;3.47;100.00;101576.19;4996737;28;19975;-86
2022/04/20 02:57:10;;;;;;;;;;;;;;;3.53;100.00;101577.56;5013879;28;19921;-86
2022/04/20 02:59:35;;;;;;;;;;;;;;;3.61;100.00;101575.31;4993491;28;19910;-85
2022/04/20 03:02:02;;;;;;;;;;;;;;;3.64;100.00;101575.09;5001245;28;19973;-86
2022/04/20 03:04:29;;;;;;;;;;;;;;;3.62;100.00;101577.00;5005471;28;19934;-86
2022/04/20 03:06:54;;;;;;;;;;;;;;;3.61;100.00;101570.03;4993744;28;20373;-85
2022/04/20 03:09:30;;;;;;;;;;;;;;;3.58;100.00;101567.56;5014101;28;19909;-85
2022/04/20 03:11:55;;;;;;;;;;;;;;;3.59;100.00;101561.34;5004591;28;19967;-85
2022/04/20 03:14:20;;;;;;;;;;;;;;;3.52;100.00;101560.03;4989121;28;19971;-85
2022/04/20 03:16:48;;;;;;;;;;;;;;;3.54;100.00;101564.28;4993619;28;19917;-86
2022/04/20 03:19:13;;;;;;;;;;;;;;;3.60;100.00;101563.03;5010206;28;20280;-85
2022/04/20 03:21:39;;;;;;;;;;;;;;;3.55;100.00;101565.13;4985551;28;19917;-86
2022/04/20 03:24:05;;;;;;;;;;;;;;;3.50;100.00;101552.22;5005329;28;19914;-86
2022/04/20 03:26:59;;;;;;;;;;;;;;;3.48;100.00;101554.09;5003044;28;19919;-85
2022/04/20 03:29:31;;;;;;;;;;;;;;;3.45;100.00;101558.75;4989958;28;19939;-86
2022/04/20 03:32:02;;;;;;;;;;;;;;;3.45;100.00;101564.84;4990483;28;19914;-86
2022/04/20 03:34:28;;;;;;;;;;;;;;;3.50;100.00;101572.50;5008451;28;20269;-85
2022/04/20 03:36:53;;;;;;;;;;;;;;;3.44;100.00;101568.47;5015805;28;19920;-85
2022/04/20 03:39:19;;;;;;;;;;;;;;;3.37;100.00;101572.41;4989189;28;19920;-85
2022/04/20 03:41:44;;;;;;;;;;;;;;;3.31;100.00;101573.63;5004868;28;19913;-86
2022/04/20 03:44:09;;;;;;;;;;;;;;;3.33;100.00;101579.69;5008381;28;20406;-86
2022/04/20 03:46:35;;;;;;;;;;;;;;;3.38;100.00;101584.66;5016521;28;19943;-86
2022/04/20 03:49:01;;;;;;;;;;;;;;;3.43;100.00;101579.09;5015037;28;19919;-85
2022/04/20 03:51:26;;;;;;;;;;;;;;;3.43;100.00;101579.94;5004212;28;19916;-85
2022/04/20 03:53:53;;;;;;;;;;;;;;;3.46;100.00;101582.38;4988940;28;20419;-86
2022/04/20 03:56:19;;;;;;;;;;;;;;;3.57;100.00;101574.63;4999735;28;19999;-86
2022/04/20 03:58:44;;;;;;;;;;;;;;;3.65;100.00;101571.50;4999894;28;19913;-85
2022/04/20 04:01:09;;;;;;;;;;;;;;;3.64;100.00;101561.91;5015105;28;19917;-85
2022/04/20 04:03:35;;;;;;;;;;;;;;;3.67;100.00;101553.78;4999860;28;19917;-85
2022/04/20 04:06:08;;;;;;;;;;;;;;;3.68;100.00;101552.00;4998397;28;19908;-86
2022/04/20 04:08:35;;;;;;;;;;;;;;;3.75;100.00;101534.81;4993950;28;19913;-86
2022/04/20 04:11:01;;;;;;;;;;;;;;;3.86;100.00;101536.75;5000085;28;19963;-85
2022/04/20 04:13:26;;;;;;;;;;;;;;;3.89;100.00;101541.84;5012694;28;19921;-85
2022/04/20 04:15:57;;;;;;;;;;;;;;;3.89;100.00;101533.91;4997633;28;19952;-85
2022/04/20 04:18:25;;;;;;;;;;;;;;;3.93;100.00;101522.19;4997258;28;19936;-85
2022/04/20 04:20:52;;;;;;;;;;;;;;;3.97;100.00;101529.81;4996195;28;19910;-86
2022/04/20 04:23:17;;;;;;;;;;;;;;;3.99;100.00;101519.16;4993030;28;20285;-87
2022/04/20 04:26:01;;;;;;;;;;;;;;;4.03;100.00;101518.00;5013079;28;20008;-86
2022/04/20 04:28:46;;;;;;;;;;;;;;;4.10;100.00;101521.94;5017115;28;19924;-85
2022/04/20 04:31:12;;;;;;;;;;;;;;;4.13;100.00;101524.38;4996641;28;19963;-84
2022/04/20 04:33:38;;;;;;;;;;;;;;;4.19;100.00;101528.38;5005160;28;19914;-85
2022/04/20 04:36:04;;;;;;;;;;;;;;;4.31;100.00;101532.00;4990756;28;19920;-85
2022/04/20 04:38:39;;;;;;;;;;;;;;;4.38;100.00;101535.97;4997846;28;19909;-85
2022/04/20 04:41:05;;;;;;;;;;;;;;;4.39;100.00;101546.41;4998003;28;19913;-85
2022/04/20 04:43:33;;;;;;;;;;;;;;;4.40;100.00;101545.47;4990629;28;19909;-85
2022/04/20 04:49:03;;;;;;;;;;;;;;;4.44;100.00;101544.31;5027236;28;19913;-86
2022/04/20 04:51:28;;;;;;;;;;;;;;;4.50;100.00;101547.50;5013350;28;19929;-87
2022/04/20 04:53:54;;;;;;;;;;;;;;;4.52;100.00;101549.09;4930844;28;19917;-85
2022/04/20 04:56:28;;;;;;;;;;;;;;;4.56;100.00;101552.38;5004708;28;19920;-86
2022/04/20 04:58:53;;;;;;;;;;;;;;;4.56;100.00;101555.84;5043158;28;19913;-85
2022/04/20 05:01:22;;;;;;;;;;;;;;;4.63;100.00;101553.63;5044047;28;19913;-85
2022/04/20 05:03:48;;;;;;;;;;;;;;;4.70;100.00;101562.00;5019814;28;19936;-85
2022/04/20 05:06:15;;;;;;;;;;;;;;;4.73;100.00;101554.72;5024302;28;19953;-86
2022/04/20 05:08:58;;;;;;;;;;;;;;;4.78;100.00;101551.78;5025558;28;19913;-85
2022/04/20 05:11:24;;;;;;;;;;;;;;;4.85;100.00;101558.34;5028855;28;20393;-86
2022/04/20 05:13:49;;;;;;;;;;;;;;;4.98;100.00;101566.25;5030962;28;19913;-86
2022/04/20 05:16:14;;;;;;;;;;;;;;;5.04;100.00;101561.38;5006305;28;19956;-85
2022/04/20 05:18:40;;;;;;;;;;;;;;;5.15;100.00;101562.44;5022789;28;19909;-85
2022/04/20 05:21:06;;;;;;;;;;;;;;;5.27;100.00;101567.72;5025851;28;19913;-87
2022/04/20 05:23:31;;;;;;;;;;;;;;;5.55;100.00;101562.25;5012626;28;20000;-87
2022/04/20 05:25:56;;;;;;;;;;;;;;;6.54;100.00;101572.69;5023386;28;20324;-86
2022/04/20 05:28:22;;;;;;;;;;;;;;;7.75;100.00;101570.31;5026325;28;19916;-85
2022/04/20 05:30:49;;;;;;;;;;;;;;;8.57;100.00;101524.53;5025352;28;19920;-87
2022/04/20 05:33:14;;;;;;;;;;;;;;;9.53;100.00;101472.66;5022105;28;19913;-86
2022/04/20 05:35:39;;;;;;;;;;;;;;;10.13;100.00;101347.94;5022494;28;19920;-86
2022/04/20 05:43:39;;;;;;;;;;;;;;;10.57;85.55;101172.03;5023161;28;20365;-86
2022/04/20 05:46:05;;;;;;;;;;;;;;;10.66;80.05;101082.16;5024604;28;19910;-86
2022/04/20 05:48:41;;;;;;;;;;;;;;;11.34;77.73;101137.56;5026494;28;19917;-87
2022/04/20 05:51:11;;;;;;;;;;;;;;;12.28;73.09;101109.03;5038637;28;20003;-85
2022/04/20 05:53:36;;;;;;;;;;;;;;;12.30;69.63;101025.88;5015545;28;20405;-87
2022/04/20 05:56:04;;;;;;;;;;;;;;;12.77;66.88;101022.50;5024453;28;19923;-85
2022/04/20 05:58:30;;;;;;;;;;;;;;;12.76;64.50;100957.38;5006153;28;19960;-85
2022/04/20 06:00:56;;;;;;;;;;;;;;;13.39;62.14;100982.47;5030618;28;19958;-88
2022/04/20 06:03:57;;;;;;;;;;;;;;;13.47;59.90;100909.16;5026618;28;19960;-85
2022/04/20 06:06:35;;;;;;;;;;;;;;;14.31;58.27;100958.34;5026226;28;19948;-86
2022/04/20 06:09:08;;;;;;;;;;;;;;;14.52;56.04;100890.47;5025363;28;20008;-86
2022/04/20 06:11:55;;;;;;;;;;;;;;;13.58;54.70;100720.13;5025288;28;20289;-86
2022/04/20 06:14:32;;;;;;;;;;;;;;;13.54;56.03;100815.41;5033052;28;19921;-88
2022/04/20 06:17:04;;;;;;;;;;;;;;;13.42;56.71;100872.16;5026301;28;19912;-87
2022/04/20 06:19:40;;;;;;;;;;;;;;;14.11;58.14;101046.59;5019407;28;19913;-87
2022/04/20 06:22:29;;;;;;;;;;;;;;;14.79;55.78;101009.13;5018146;28;19920;-87
2022/04/20 06:24:57;;;;;;;;;;;;;;;15.00;54.82;100943.88;5026360;28;19959;-87
2022/04/20 06:27:41;;;;;;;;;;;;;;;15.11;52.48;100835.00;5018057;28;19909;-87
2022/04/20 06:30:25;;;;;;;;;;;;;;;14.76;52.35;100800.69;5027088;28;19923;-86
2022/04/20 06:33:03;;;;;;;;;;;;;;;13.30;53.35;100649.19;5019984;28;19924;-86
2022/04/20 06:35:48;;;;;;;;;;;;;;;12.73;56.74;100778.22;5024742;28;19956;-86
2022/04/20 06:38:37;;;;;;;;;;;;;;;12.24;58.36;100803.38;5014304;28;19964;-87
2022/04/20 06:41:05;;;;;;;;;;;;;;;12.56;58.23;100887.28;5022576;28;19913;-86
2022/04/20 06:43:58;;;;;;;;;;;;;;;13.50;57.33;100995.47;5007725;28;20395;-86
2022/04/20 06:46:38;;;;;;;;;;;;;;;14.29;54.59;100971.09;5025354;28;20439;-86
2022/04/20 06:49:33;;;;;;;;;;;;;;;14.15;54.51;100916.34;5012730;28;20439;-86
2022/04/20 07:00:25;;;;;;;;;;;;;;;14.92;53.45;100960.09;5017729;28;19962;-85
2022/04/20 07:03:00;;;;;;;;;;;;;;;14.97;53.41;100938.88;5018882;28;19952;-86
2022/04/20 07:05:44;;;;;;;;;;;;;;;15.34;53.35;101004.31;5022027;28;19943;-85
2022/04/20 07:08:36;;;;;;;;;;;;;;;15.59;52.56;100989.50;5004490;28;19970;-85
2022/04/20 07:11:09;;;;;;;;;;;;;;;15.89;51.80;101000.19;5002441;28;19920;-86
2022/04/20 07:13:36;;;;;;;;;;;;;;;15.36;51.27;100875.84;5025727;28;20060;-86
2022/04/20 07:16:01;;;;;;;;;;;;;;;14.76;52.33;100851.75;5020052;28;19996;-87
2022/04/20 07:18:31;;;;;;;;;;;;;;;14.92;51.46;100826.53;5020755;28;19951;-88
2022/04/20 07:20:59;;;;;;;;;;;;;;;13.47;52.13;100636.44;5019325;28;19909;-86
2022/04/20 07:23:43;;;;;;;;;;;;;;;14.36;52.81;100883.41;5025958;28;19947;-85
2022/04/20 07:26:27;;;;;;;;;;;;;;;14.11;52.53;100841.72;5025033;28;19976;-86
2022/04/20 07:29:06;;;;;;;;;;;;;;;13.79;53.39;100834.81;5021984;28;19948;-86
2022/04/20 07:32:06;;;;;;;;;;;;;;;14.62;53.35;100976.22;5012752;28;20044;-86
2022/04/20 07:34:34;;;;;;;;;;;;;;;14.67;51.74;100866.31;5021706;28;19924;-86
2022/04/20 07:37:08;;;;;;;;;;;;;;;15.10;51.37;100936.38;5016884;28;20388;-89
2022/04/20 07:39:47;;;;;;;;;;;;;;;14.98;50.53;100874.16;5025933;28;20796;-87
2022/04/20 07:42:31;;;;;;;;;;;;;;;15.46;50.16;100922.09;5029013;28;20765;-87
2022/04/20 07:45:13;;;;;;;;;;;;;;;15.10;49.15;100785.78;5019965;28;20388;-87
2022/04/20 07:47:57;;;;;;;;;;;;;;;14.63;50.79;100822.03;5019886;28;19928;-86
2022/04/20 07:50:52;;;;;;;;;;;;;;;14.81;48.91;100749.06;5016039;28;20300;-87
2022/04/20 07:53:52;;;;;;;;;;;;;;;13.79;51.05;100712.22;5000809;28;20376;-86
2022/04/20 07:56:36;;;;;;;;;;;;;;;14.18;52.01;100866.00;5015493;28;20324;-87
2022/04/20 07:59:20;;;;;;;;;;;;;;;14.15;53.29;100897.56;5022420;28;19939;-86
2022/04/20 08:01:53;;;;;;;;;;;;;;;14.89;52.70;100998.09;5007281;28;20274;-86
2022/04/20 08:04:56;;;;;;;;;;;;;;;15.15;51.09;100928.56;5020024;28;19978;-88
2022/04/20 08:07:26;;;;;;;;;;;;;;;15.97;52.24;101110.50;5022850;28;19913;-86
2022/04/20 08:09:52;;;;;;;;;;;;;;;15.99;50.33;100986.41;5027942;28;19921;-87
2022/04/20 08:12:17;;;;;;;;;;;;;;;15.86;50.57;100979.06;5007410;28;19917;-86
2022/04/20 08:14:43;;;;;;;;;;;;;;;15.99;50.70;100994.50;5024318;28;20357;-86
2022/04/20 08:17:19;;;;;;;;;;;;;;;16.31;49.63;100976.97;5024075;28;20427;-86
2022/04/20 08:19:44;;;;;;;;;;;;;;;16.88;49.71;101051.47;5026741;28;19916;-86
2022/04/20 08:22:22;;;;;;;;;;;;;;;16.60;49.00;100961.63;5017935;28;19921;-86
2022/04/20 08:24:47;;;;;;;;;;;;;;;15.83;49.13;100805.28;5007691;28;19913;-86
2022/04/20 08:27:14;;;;;;;;;;;;;;;16.13;49.11;100868.88;5018379;28;19936;-86
2022/04/20 08:29:40;;;;;;;;;;;;;;;16.78;48.75;100972.75;5020657;28;19920;-86
2022/04/20 08:32:18;;;;;;;;;;;;;;;17.39;47.43;100996.34;5019964;28;19913;-86
2022/04/20 08:34:44;;;;;;;;;;;;;;;17.25;46.70;100844.34;5028616;28;19924;-86
2022/04/20 08:37:09;;;;;;;;;;;;;;;17.38;46.20;100865.16;5022564;28;19909;-88
2022/04/20 08:39:35;;;;;;;;;;;;;;;17.90;46.09;100950.00;5039580;28;19961;-87
2022/04/20 08:42:00;;;;;;;;;;;;;;;17.74;46.23;100912.53;5021451;28;19919;-87
2022/04/20 08:44:27;;;;;;;;;;;;;;;18.09;45.71;100912.41;5019778;28;20685;-86
2022/04/20 08:46:53;;;;;;;;;;;;;;;18.38;44.15;100865.19;5020108;28;20004;-86
2022/04/20 08:49:18;;;;;;;;;;;;;;;17.80;43.50;100646.28;5023545;28;20451;-86
2022/04/20 08:54:28;;;;;;;;;;;;;;;17.92;44.29;100806.66;5023108;28;19927;-86
2022/04/20 08:59:38;;;;;;;;;;;;;;;17.93;42.73;100662.44;5019664;28;19917;-87
2022/04/20 09:02:04;;;;;;;;;;;;;;;18.15;43.77;100768.38;5021690;28;19916;-86
2022/04/20 09:04:36;;;;;;;;;;;;;;;17.85;44.28;100762.63;5004193;28;19913;-86
2022/04/20 09:07:03;;;;;;;;;;;;;;;17.59;43.11;100633.88;5006429;28;19925;-86
2022/04/20 09:09:30;;;;;;;;;;;;;;;17.59;42.48;100561.81;5043018;28;20299;-86
2022/04/20 09:11:57;;;;;;;;;;;;;;;17.96;42.53;100640.44;5023087;28;19932;-85
2022/04/20 09:14:23;;;;;;;;;;;;;;;18.71;42.96;100802.91;5022073;28;19936;-87
2022/04/20 09:16:52;;;;;;;;;;;;;;;18.83;41.71;100711.13;5019714;28;20365;-86
2022/04/20 09:19:24;;;;;;;;;;;;;;;18.70;42.29;100733.63;5007434;28;19912;-86
2022/04/20 09:21:49;;;;;;;;;;;;;;;18.10;41.51;100549.38;5038601;28;19912;-86
2022/04/20 09:24:15;;;;;;;;;;;;;;;18.26;40.87;100551.53;5038541;28;20388;-86
2022/04/20 09:26:49;;;;;;;;;;;;;;;18.80;40.89;100667.44;5024993;28;20011;-86
2022/04/20 09:29:14;;;;;;;;;;;;;;;18.79;40.75;100658.50;5006873;28;19913;-86
2022/04/20 09:31:43;;;;;;;;;;;;;;;19.05;40.46;100662.88;5025189;28;20288;-86
2022/04/20 09:34:08;;;;;;;;;;;;;;;19.12;40.84;100689.91;5026154;28;19967;-86
2022/04/20 09:36:48;;;;;;;;;;;;;;;19.56;40.02;100717.84;5001189;28;19945;-86
2022/04/20 09:39:13;;;;;;;;;;;;;;;19.29;39.79;100581.91;5006026;28;20392;-86
2022/04/20 09:41:58;;;;;;;;;;;;;;;18.65;40.13;100524.44;5021070;28;19913;-86
2022/04/20 09:44:24;;;;;;;;;;;;;;;19.15;40.57;100647.00;5009158;28;19918;-86
2022/04/20 09:49:34;;;;;;;;;;;;;;;19.51;39.90;100686.03;5019885;28;20288;-86
2022/04/20 09:52:10;;;;;;;;;;;;;;;19.73;39.52;100681.03;5025215;28;19909;-87
2022/04/20 09:54:36;;;;;;;;;;;;;;;18.82;40.13;100520.13;5014468;28;19928;-87
2022/04/20 09:57:08;;;;;;;;;;;;;;;19.56;39.54;100652.84;5007646;28;19909;-87
2022/04/20 09:59:34;;;;;;;;;;;;;;;18.54;39.80;100431.34;5024805;28;19979;-86
2022/04/20 10:02:09;;;;;;;;;;;;;;;19.18;40.90;100643.03;5004988;28;20373;-86
2022/04/20 10:04:34;;;;;;;;;;;;;;;18.96;41.13;100637.16;5028603;28;19959;-86
2022/04/20 10:07:00;;;;;;;;;;;;;;;18.85;40.30;100540.53;5023584;28;20569;-86
2022/04/20 10:09:25;;;;;;;;;;;;;;;18.94;41.46;100637.41;5030482;28;20016;-86
2022/04/20 10:11:50;;;;;;;;;;;;;;;19.96;39.65;100720.19;5023780;28;19955;-87
2022/04/20 10:17:00;;;;;;;;;;;;;;;19.82;37.48;100389.03;5024359;28;20370;-85
2022/04/20 10:19:27;;;;;;;;;;;;;;;19.81;39.75;100631.16;5009195;28;20015;-86
2022/04/20 10:21:53;;;;;;;;;;;;;;;19.60;38.46;100475.34;5023296;28;19980;-86
2022/04/20 10:24:22;;;;;;;;;;;;;;;20.17;39.14;100662.81;5021611;28;19948;-86
2022/04/20 10:26:48;;;;;;;;;;;;;;;19.10;38.51;100353.78;5016511;28;19917;-86
2022/04/20 10:29:19;;;;;;;;;;;;;;;19.50;40.21;100597.75;5022740;28;19913;-86
2022/04/20 10:31:59;;;;;;;;;;;;;;;20.05;38.35;100523.72;5028452;28;19996;-86
2022/04/20 10:34:25;;;;;;;;;;;;;;;20.58;38.83;100695.66;5015323;28;19917;-85
2022/04/20 10:37:19;;;;;;;;;;;;;;;20.05;38.59;100523.72;5029995;28;19910;-84
2022/04/20 10:39:55;;;;;;;;;;;;;;;19.28;38.87;100421.41;5017263;28;19913;-85
2022/04/20 10:42:22;;;;;;;;;;;;;;;19.98;39.69;100642.22;5032027;28;19956;-86
2022/04/20 10:44:59;;;;;;;;;;;;;;;20.20;38.89;100610.84;5023091;28;19910;-86
2022/04/20 10:47:29;;;;;;;;;;;;;;;20.37;38.03;100526.16;5023254;28;20378;-87
2022/04/20 10:50:13;;;;;;;;;;;;;;;20.59;38.02;100605.94;5015725;28;19908;-86
2022/04/20 10:52:39;;;;;;;;;;;;;;;20.26;38.69;100556.78;5026139;28;20304;-86
2022/04/20 10:55:06;;;;;;;;;;;;;;;19.61;37.99;100366.78;5027573;28;19913;-86
2022/04/20 10:57:33;;;;;;;;;;;;;;;19.93;39.00;100575.16;5028357;28;19917;-87
2022/04/20 11:00:16;;;;;;;;;;;;;;;19.24;38.03;100336.31;5012887;28;19928;-86
2022/04/20 11:02:49;;;;;;;;;;;;;;;19.37;38.87;100433.56;5012968;28;19923;-87
2022/04/20 11:05:15;;;;;;;;;;;;;;;19.72;39.38;100545.84;5026905;28;19948;-86
2022/04/20 11:07:59;;;;;;;;;;;;;;;19.78;38.96;100510.56;5035516;28;19979;-88
2022/04/20 11:10:24;;;;;;;;;;;;;;;20.61;37.90;100576.72;5017875;28;19920;-86
2022/04/20 11:18:39;;;;;;;;;;;;;;;19.37;36.92;100165.59;5020993;28;20166;-86
2022/04/20 11:21:29;;;;;;;;;;;;;;;20.06;38.75;100579.56;5010607;28;20569;-86
2022/04/20 11:24:05;;;;;;;;;;;;;;;20.17;37.24;100408.03;5025223;28;20004;-86
2022/04/20 11:26:30;;;;;;;;;;;;;;;19.87;37.73;100410.00;5000817;28;20541;-86
2022/04/20 11:28:56;;;;;;;;;;;;;;;19.83;37.41;100347.34;5001639;28;19913;-86
2022/04/20 11:31:22;;;;;;;;;;;;;;;20.79;37.59;100564.09;5000721;28;19913;-86
2022/04/20 11:33:49;;;;;;;;;;;;;;;20.98;37.16;100573.81;5025232;28;19940;-88
2022/04/20 11:36:15;;;;;;;;;;;;;;;21.57;36.37;100594.69;5017657;28;20300;-86
2022/04/20 11:38:44;;;;;;;;;;;;;;;22.00;36.31;100669.50;5017743;28;19909;-86
2022/04/20 11:41:10;;;;;;;;;;;;;;;21.40;36.69;100530.25;5019425;28;19913;-87
2022/04/20 11:43:36;;;;;;;;;;;;;;;21.43;37.42;100581.38;5022058;28;19908;-88
2022/04/20 11:46:04;;;;;;;;;;;;;;;20.91;37.94;100526.97;5041165;28;19924;-86
2022/04/20 11:48:30;;;;;;;;;;;;;;;21.42;36.36;100479.25;5025434;28;20003;-86
2022/04/20 11:50:56;;;;;;;;;;;;;;;21.17;36.91;100484.13;5026710;28;19959;-87
2022/04/20 11:53:30;;;;;;;;;;;;;;;20.77;38.34;100536.41;5025493;28;20410;-87
2022/04/20 11:56:03;;;;;;;;;;;;;;;21.43;38.29;100668.25;5008636;28;20391;-86
2022/04/20 11:58:30;;;;;;;;;;;;;;;21.33;37.05;100507.81;5005267;28;19914;-86
2022/04/20 12:01:00;;;;;;;;;;;;;;;21.12;36.96;100441.41;5029068;28;19931;-86
2022/04/20 12:03:27;;;;;;;;;;;;;;;20.43;38.00;100411.34;5021665;28;19913;-86
2022/04/20 12:05:59;;;;;;;;;;;;;;;21.04;37.98;100547.59;5021387;28;19909;-86
2022/04/20 12:08:25;;;;;;;;;;;;;;;20.20;38.19;100364.19;5007478;28;19917;-86
2022/04/20 12:10:52;;;;;;;;;;;;;;;21.29;39.41;100732.81;5024925;28;19935;-88
2022/04/20 12:13:24;;;;;;;;;;;;;;;21.22;38.65;100606.38;5019901;28;20382;-87
2022/04/20 12:15:58;;;;;;;;;;;;;;;21.24;37.14;100520.09;5020799;28;19959;-85
2022/04/20 12:18:23;;;;;;;;;;;;;;;21.56;37.70;100610.13;5015563;28;19917;-86
2022/04/20 12:20:49;;;;;;;;;;;;;;;21.78;37.02;100604.91;5020388;28;19915;-88
2022/04/20 12:23:16;;;;;;;;;;;;;;;21.94;35.86;100505.50;5023481;28;19920;-87
2022/04/20 12:25:41;;;;;;;;;;;;;;;21.17;37.06;100410.81;5037937;28;19910;-88
2022/04/20 12:30:59;;;;;;;;;;;;;;;20.66;37.59;100386.97;5023330;28;20714;-87
2022/04/20 12:33:25;;;;;;;;;;;;;;;20.29;37.36;100264.38;5023516;28;19983;-87
2022/04/20 12:36:03;;;;;;;;;;;;;;;20.28;37.92;100318.84;5023635;28;19909;-86
2022/04/20 12:38:45;;;;;;;;;;;;;;;20.55;37.49;100405.94;5013171;28;19928;-87
2022/04/20 12:41:30;;;;;;;;;;;;;;;20.70;37.25;100359.34;5005926;28;19940;-87
2022/04/20 12:43:55;;;;;;;;;;;;;;;20.69;37.30;100406.53;5005875;28;19920;-87
2022/04/20 12:46:21;;;;;;;;;;;;;;;20.22;38.85;100437.97;5019655;28;19909;-86
2022/04/20 12:48:47;;;;;;;;;;;;;;;21.01;37.90;100554.34;5003658;28;19913;-87
2022/04/20 12:51:22;;;;;;;;;;;;;;;20.55;37.89;100405.94;5021992;28;19909;-86
2022/04/20 12:53:48;;;;;;;;;;;;;;;20.29;37.61;100344.88;5023309;28;19917;-85
2022/04/20 13:04:25;;;;;;;;;;;;;;;20.83;35.96;100308.38;5020517;28;19914;-86
2022/04/20 13:06:50;;;;;;;;;;;;;;;21.60;37.02;100529.00;5020143;28;19916;-87
2022/04/20 13:09:16;;;;;;;;;;;;;;;21.03;37.37;100424.66;5039061;28;20007;-86
2022/04/20 13:11:41;;;;;;;;;;;;;;;21.09;36.45;100374.00;5022265;28;20020;-88
2022/04/20 13:14:07;;;;;;;;;;;;;;;21.45;36.74;100488.81;5036676;28;19920;-88
2022/04/20 13:16:32;;;;;;;;;;;;;;;20.40;37.72;100300.69;5024841;28;19912;-88
2022/04/20 13:18:59;;;;;;;;;;;;;;;20.17;37.79;100272.53;5021290;28;20475;-89
2022/04/20 13:21:24;;;;;;;;;;;;;;;20.05;38.57;100306.94;5018015;28;19909;-89
2022/04/20 13:23:52;;;;;;;;;;;;;;;19.34;39.68;100247.28;5018129;28;19917;-88
2022/04/20 13:29:01;;;;;;;;;;;;;;;18.84;40.81;100317.06;5022257;28;19996;-90
2022/04/20 13:31:26;;;;;;;;;;;;;;;19.38;39.87;100361.31;5024231;28;20007;-90
2022/04/20 13:33:51;;;;;;;;;;;;;;;19.13;39.72;100283.00;5029644;28;19921;-89
2022/04/20 13:36:17;;;;;;;;;;;;;;;20.10;38.94;100466.94;5022070;28;19931;-89
2022/04/20 13:38:42;;;;;;;;;;;;;;;20.30;38.09;100423.28;5021984;28;19913;-88
2022/04/20 13:41:07;;;;;;;;;;;;;;;19.79;39.23;100371.34;4992863;28;19987;-88
2022/04/20 13:43:33;;;;;;;;;;;;;;;20.29;40.07;100583.44;5018800;28;20350;-88